createdAt,value
2023-03-26T00:00:57.691Z,8
2023-03-26T00:01:58.865Z,8
2023-03-26T00:03:00.046Z,8
2023-03-26T00:04:01.369Z,8
2023-03-26T00:05:02.541Z,8
2023-03-26T00:06:03.870Z,8
2023-03-26T00:07:05.116Z,8
2023-03-26T00:08:06.277Z,8
2023-03-26T00:09:07.443Z,8
2023-03-26T00:10:08.611Z,8
2023-03-26T00:11:09.775Z,8
2023-03-26T00:12:10.941Z,8
2023-03-26T00:13:12.106Z,8
2023-03-26T00:14:13.263Z,8
2023-03-26T00:15:14.972Z,8
2023-03-26T00:16:16.155Z,8
2023-03-26T00:17:17.310Z,8
2023-03-26T00:18:18.474Z,8
2023-03-26T00:19:19.639Z,8
2023-03-26T00:20:20.850Z,8
2023-03-26T00:21:21.977Z,8
2023-03-26T00:22:23.143Z,8
2023-03-26T00:23:24.018Z,8.1
2023-03-26T00:24:25.466Z,8
2023-03-26T00:25:26.640Z,8.1
2023-03-26T00:26:27.801Z,8
2023-03-26T00:27:28.959Z,8.1
2023-03-26T00:28:30.142Z,8.1
2023-03-26T00:29:31.307Z,8.1
2023-03-26T00:30:32.489Z,8.1
2023-03-26T00:31:33.641Z,8.1
2023-03-26T00:32:34.786Z,8.1
2023-03-26T00:33:35.958Z,8.1
2023-03-26T00:34:37.121Z,8.1
2023-03-26T00:35:38.338Z,8.1
2023-03-26T00:36:39.506Z,8.1
2023-03-26T00:37:40.504Z,8.1
2023-03-26T00:38:41.484Z,8.1
2023-03-26T00:39:42.682Z,8.1
2023-03-26T00:40:43.815Z,8
2023-03-26T00:41:44.986Z,8
2023-03-26T00:42:45.998Z,8.1
2023-03-26T00:43:46.972Z,8
2023-03-26T00:44:48.320Z,8
2023-03-26T00:45:49.467Z,8
2023-03-26T00:46:50.604Z,8
2023-03-26T00:47:51.635Z,8
2023-03-26T00:48:52.663Z,8
2023-03-26T00:49:53.837Z,8
2023-03-26T00:50:55.017Z,8
2023-03-26T00:51:56.155Z,8
2023-03-26T00:52:57.322Z,8
2023-03-26T00:53:58.496Z,8
2023-03-26T00:54:59.665Z,8
2023-03-26T00:56:00.812Z,8
2023-03-26T00:57:01.985Z,8
2023-03-26T00:58:03.112Z,7.9
2023-03-26T00:59:04.285Z,7.9
2023-03-26T01:00:05.260Z,7.9
2023-03-26T01:01:06.419Z,7.9
2023-03-26T01:02:07.578Z,7.9
2023-03-26T01:03:08.795Z,7.8
2023-03-26T01:04:10.372Z,7.8
2023-03-26T01:05:11.825Z,7.8
2023-03-26T01:06:13.139Z,7.8
2023-03-26T01:07:14.288Z,7.8
2023-03-26T01:08:15.441Z,7.8
2023-03-26T01:09:16.627Z,7.8
2023-03-26T01:10:17.827Z,7.8
2023-03-26T01:11:18.960Z,7.7
2023-03-26T01:12:20.121Z,7.7
2023-03-26T01:13:21.088Z,7.7
2023-03-26T01:14:22.255Z,7.7
2023-03-26T01:15:23.424Z,7.7
2023-03-26T01:16:24.598Z,7.7
2023-03-26T01:17:26.065Z,7.7
2023-03-26T01:18:27.241Z,7.7
2023-03-26T01:19:28.207Z,7.7
2023-03-26T01:20:29.381Z,7.7
2023-03-26T01:21:30.524Z,7.7
2023-03-26T01:22:31.587Z,7.7
2023-03-26T01:23:32.753Z,7.6
2023-03-26T01:24:33.915Z,7.6
2023-03-26T01:25:34.894Z,7.6
2023-03-26T01:26:36.054Z,7.6
2023-03-26T01:27:37.213Z,7.6
2023-03-26T01:28:38.377Z,7.6
2023-03-26T01:29:39.548Z,7.6
2023-03-26T01:30:40.724Z,7.6
2023-03-26T01:31:41.674Z,7.6
2023-03-26T01:32:42.880Z,7.6
2023-03-26T01:33:44.692Z,7.5
2023-03-26T01:34:46.384Z,7.5
2023-03-26T01:35:47.640Z,7.5
2023-03-26T01:36:48.984Z,7.5
2023-03-26T01:37:50.123Z,7.5
2023-03-26T01:38:51.158Z,7.5
2023-03-26T01:39:52.101Z,7.5
2023-03-26T01:40:53.280Z,7.5
2023-03-26T01:41:54.330Z,7.5
2023-03-26T01:42:55.454Z,7.5
2023-03-26T01:43:56.619Z,7.5
2023-03-26T01:44:57.588Z,7.5
2023-03-26T01:45:58.781Z,7.5
2023-03-26T01:46:59.949Z,7.5
2023-03-26T01:48:01.265Z,7.5
2023-03-26T01:49:02.662Z,7.5
2023-03-26T01:50:03.827Z,7.5
2023-03-26T01:51:04.816Z,7.5
2023-03-26T01:52:05.789Z,7.5
2023-03-26T01:53:06.933Z,7.5
2023-03-26T01:54:07.903Z,7.5
2023-03-26T01:55:09.067Z,7.5
2023-03-26T01:56:10.255Z,7.5
2023-03-26T01:57:11.449Z,7.5
2023-03-26T01:58:12.864Z,7.5
2023-03-26T01:59:14.032Z,7.5
2023-03-26T02:00:15.232Z,7.4
2023-03-26T02:01:16.432Z,7.4
2023-03-26T02:02:17.769Z,7.4
2023-03-26T02:03:19.319Z,7.4
2023-03-26T02:04:20.997Z,7.4
2023-03-26T02:05:22.161Z,7.4
2023-03-26T02:06:23.334Z,7.4
2023-03-26T02:07:24.539Z,7.4
2023-03-26T02:08:25.838Z,7.4
2023-03-26T02:09:27.007Z,7.4
2023-03-26T02:10:28.165Z,7.4
2023-03-26T02:11:35.265Z,7.4
2023-03-26T02:12:37.089Z,7.4
2023-03-26T02:13:38.253Z,7.4
2023-03-26T02:14:39.428Z,7.4
2023-03-26T02:15:40.584Z,7.4
2023-03-26T02:16:41.798Z,7.4
2023-03-26T02:17:42.616Z,7.4
2023-03-26T02:18:43.568Z,7.4
2023-03-26T02:19:44.735Z,7.4
2023-03-26T02:20:45.703Z,7.4
2023-03-26T02:21:46.883Z,7.4
2023-03-26T02:22:48.067Z,7.4
2023-03-26T02:23:49.197Z,7.4
2023-03-26T02:24:50.362Z,7.4
2023-03-26T02:25:51.789Z,7.5
2023-03-26T02:26:53.934Z,7.5
2023-03-26T02:27:55.087Z,7.5
2023-03-26T02:28:58.494Z,7.5
2023-03-26T02:29:59.633Z,7.5
2023-03-26T02:31:00.602Z,7.5
2023-03-26T02:32:01.811Z,7.5
2023-03-26T02:33:03.169Z,7.5
2023-03-26T02:34:04.483Z,7.5
2023-03-26T02:35:05.644Z,7.5
2023-03-26T02:36:06.857Z,7.5
2023-03-26T02:37:08.343Z,7.5
2023-03-26T02:38:09.520Z,7.5
2023-03-26T02:39:10.670Z,7.5
2023-03-26T02:40:11.888Z,7.5
2023-03-26T02:41:13.103Z,7.5
2023-03-26T02:42:14.268Z,7.5
2023-03-26T02:43:15.415Z,7.5
2023-03-26T02:44:16.585Z,7.5
2023-03-26T02:45:17.546Z,7.5
2023-03-26T02:46:18.744Z,7.5
2023-03-26T02:47:20.158Z,7.5
2023-03-26T02:48:21.298Z,7.5
2023-03-26T02:49:22.540Z,7.5
2023-03-26T02:50:23.709Z,7.5
2023-03-26T02:51:24.676Z,7.4
2023-03-26T02:52:25.860Z,7.4
2023-03-26T02:53:27.031Z,7.4
2023-03-26T02:54:28.165Z,7.4
2023-03-26T02:55:29.333Z,7.5
2023-03-26T02:56:30.529Z,7.4
2023-03-26T02:57:31.805Z,7.4
2023-03-26T02:58:32.941Z,7.5
2023-03-26T02:59:34.111Z,7.4
2023-03-26T03:00:35.271Z,7.4
2023-03-26T03:01:36.249Z,7.4
2023-03-26T03:02:37.641Z,7.4
2023-03-26T03:03:38.706Z,7.5
2023-03-26T03:04:39.676Z,7.4
2023-03-26T03:05:40.843Z,7.5
2023-03-26T03:06:41.811Z,7.4
2023-03-26T03:07:43.414Z,7.4
2023-03-26T03:08:44.630Z,7.4
2023-03-26T03:09:45.667Z,7.4
2023-03-26T03:10:46.483Z,7.5
2023-03-26T03:11:47.644Z,7.5
2023-03-26T03:12:48.820Z,7.5
2023-03-26T03:13:49.976Z,7.5
2023-03-26T03:14:51.140Z,7.5
2023-03-26T03:15:52.370Z,7.5
2023-03-26T03:16:54.170Z,7.5
2023-03-26T03:17:55.459Z,7.5
2023-03-26T03:18:57.979Z,7.5
2023-03-26T03:19:59.370Z,7.5
2023-03-26T03:21:00.540Z,7.5
2023-03-26T03:22:01.706Z,7.5
2023-03-26T03:23:02.897Z,7.5
2023-03-26T03:24:03.976Z,7.5
2023-03-26T03:25:04.835Z,7.5
2023-03-26T03:26:05.988Z,7.5
2023-03-26T03:27:07.155Z,7.5
2023-03-26T03:28:08.334Z,7.5
2023-03-26T03:29:09.479Z,7.5
2023-03-26T03:30:10.642Z,7.5
2023-03-26T03:31:11.828Z,7.6
2023-03-26T03:32:13.191Z,7.5
2023-03-26T03:33:14.376Z,7.5
2023-03-26T03:34:15.521Z,7.5
2023-03-26T03:35:16.695Z,7.6
2023-03-26T03:36:20.083Z,7.5
2023-03-26T03:37:22.714Z,7.6
2023-03-26T03:38:23.893Z,7.5
2023-03-26T03:39:24.874Z,7.6
2023-03-26T03:40:26.056Z,7.5
2023-03-26T03:41:27.205Z,7.5
2023-03-26T03:42:28.028Z,7.5
2023-03-26T03:43:29.208Z,7.5
2023-03-26T03:44:30.343Z,7.5
2023-03-26T03:45:31.707Z,7.5
2023-03-26T03:46:32.960Z,7.5
2023-03-26T03:47:34.123Z,7.5
2023-03-26T03:48:35.363Z,7.5
2023-03-26T03:49:36.513Z,7.5
2023-03-26T03:50:37.676Z,7.5
2023-03-26T03:52:48.008Z,7.5
2023-03-26T03:53:49.204Z,7.4
2023-03-26T03:54:50.371Z,7.4
2023-03-26T03:55:51.529Z,7.4
2023-03-26T03:56:53.055Z,7.4
2023-03-26T03:57:54.361Z,7.4
2023-03-26T03:58:55.541Z,7.4
2023-03-26T03:59:56.694Z,7.4
2023-03-26T04:00:57.854Z,7.4
2023-03-26T04:01:58.826Z,7.4
2023-03-26T04:03:00.027Z,7.4
2023-03-26T04:04:01.528Z,7.4
2023-03-26T04:05:03.011Z,7.3
2023-03-26T04:06:04.174Z,7.3
2023-03-26T04:07:05.167Z,7.3
2023-03-26T04:08:06.323Z,7.3
2023-03-26T04:09:07.501Z,7.3
2023-03-26T04:10:08.676Z,7.3
2023-03-26T04:11:09.873Z,7.3
2023-03-26T04:12:10.842Z,7.3
2023-03-26T04:13:12.011Z,7.3
2023-03-26T04:14:13.194Z,7.3
2023-03-26T04:15:14.341Z,7.3
2023-03-26T04:16:15.558Z,7.3
2023-03-26T04:17:16.923Z,7.3
2023-03-26T04:18:18.098Z,7.3
2023-03-26T04:19:19.262Z,7.3
2023-03-26T04:20:20.414Z,7.3
2023-03-26T04:21:21.581Z,7.3
2023-03-26T04:22:22.742Z,7.3
2023-03-26T04:23:23.913Z,7.3
2023-03-26T04:24:25.308Z,7.3
2023-03-26T04:25:26.474Z,7.3
2023-03-26T04:26:27.617Z,7.4
2023-03-26T04:27:28.585Z,7.4
2023-03-26T04:28:29.752Z,7.4
2023-03-26T04:29:30.735Z,7.4
2023-03-26T04:30:31.885Z,7.4
2023-03-26T04:31:32.907Z,7.4
2023-03-26T04:32:34.065Z,7.4
2023-03-26T04:33:35.149Z,7.4
2023-03-26T04:34:36.326Z,7.4
2023-03-26T04:35:37.519Z,7.4
2023-03-26T04:36:38.925Z,7.4
2023-03-26T04:37:40.154Z,7.4
2023-03-26T04:38:41.257Z,7.4
2023-03-26T04:39:42.426Z,7.4
2023-03-26T04:40:43.625Z,7.4
2023-03-26T04:41:44.762Z,7.4
2023-03-26T04:42:45.950Z,7.4
2023-03-26T04:44:48.428Z,7.4
2023-03-26T04:45:49.577Z,7.4
2023-03-26T04:46:50.755Z,7.4
2023-03-26T04:47:52.095Z,7.4
2023-03-26T04:48:53.479Z,7.4
2023-03-26T04:49:54.115Z,7.4
2023-03-26T04:50:55.269Z,7.4
2023-03-26T04:51:56.435Z,7.4
2023-03-26T04:52:57.603Z,7.4
2023-03-26T04:53:58.763Z,7.4
2023-03-26T04:54:59.947Z,7.4
2023-03-26T04:56:00.971Z,7.4
2023-03-26T04:57:02.155Z,7.4
2023-03-26T04:58:03.187Z,7.4
2023-03-26T04:59:04.353Z,7.4
2023-03-26T05:00:05.533Z,7.4
2023-03-26T05:01:10.087Z,7.5
2023-03-26T05:02:11.877Z,7.5
2023-03-26T05:03:12.888Z,7.5
2023-03-26T05:04:14.067Z,7.5
2023-03-26T05:05:15.321Z,7.5
2023-03-26T05:06:16.480Z,7.5
2023-03-26T05:07:17.635Z,7.5
2023-03-26T05:08:18.409Z,7.5
2023-03-26T05:09:19.570Z,7.5
2023-03-26T05:10:20.796Z,7.5
2023-03-26T05:11:21.942Z,7.5
2023-03-26T05:12:23.079Z,7.5
2023-03-26T05:13:24.248Z,7.5
2023-03-26T05:14:25.412Z,7.5
2023-03-26T05:15:26.590Z,7.5
2023-03-26T05:16:27.759Z,7.5
2023-03-26T05:17:28.911Z,7.5
2023-03-26T05:18:33.541Z,7.5
2023-03-26T05:19:34.790Z,7.5
2023-03-26T05:20:35.762Z,7.5
2023-03-26T05:21:36.806Z,7.5
2023-03-26T05:22:38.248Z,7.5
2023-03-26T05:23:39.426Z,7.5
2023-03-26T05:24:40.592Z,7.5
2023-03-26T05:25:41.778Z,7.5
2023-03-26T05:26:42.942Z,7.5
2023-03-26T05:27:44.204Z,7.5
2023-03-26T05:28:45.404Z,7.6
2023-03-26T05:29:46.214Z,7.6
2023-03-26T05:30:47.462Z,7.6
2023-03-26T05:31:48.503Z,7.6
2023-03-26T05:32:49.759Z,7.6
2023-03-26T05:33:51.265Z,7.6
2023-03-26T05:34:52.492Z,7.6
2023-03-26T05:35:53.519Z,7.6
2023-03-26T05:36:54.722Z,7.6
2023-03-26T05:37:55.691Z,7.6
2023-03-26T05:38:56.856Z,7.6
2023-03-26T05:39:58.020Z,7.6
2023-03-26T05:40:59.206Z,7.6
2023-03-26T05:42:00.176Z,7.6
2023-03-26T05:43:01.127Z,7.6
2023-03-26T05:44:02.293Z,7.7
2023-03-26T05:45:03.455Z,7.7
2023-03-26T05:46:04.675Z,7.7
2023-03-26T05:47:05.990Z,7.7
2023-03-26T05:48:06.971Z,7.7
2023-03-26T05:49:07.917Z,7.7
2023-03-26T05:50:08.881Z,7.7
2023-03-26T05:51:09.878Z,7.7
2023-03-26T05:52:11.021Z,7.7
2023-03-26T05:53:12.187Z,7.7
2023-03-26T05:54:13.356Z,7.7
2023-03-26T05:55:14.328Z,7.8
2023-03-26T05:56:15.500Z,7.7
2023-03-26T05:57:16.710Z,7.8
2023-03-26T05:58:17.970Z,7.8
2023-03-26T05:59:19.133Z,7.8
2023-03-26T06:00:20.295Z,7.8
2023-03-26T06:01:23.930Z,7.8
2023-03-26T06:02:25.133Z,7.8
2023-03-26T06:03:26.402Z,7.9
2023-03-26T06:04:27.979Z,7.9
2023-03-26T06:05:29.463Z,7.9
2023-03-26T06:06:32.314Z,8
2023-03-26T06:07:34.306Z,8
2023-03-26T06:08:35.481Z,8
2023-03-26T06:09:36.641Z,8
2023-03-26T06:10:37.845Z,8
2023-03-26T06:11:39.393Z,8
2023-03-26T06:12:40.338Z,8
2023-03-26T06:13:41.483Z,8
2023-03-26T06:14:42.670Z,8
2023-03-26T06:15:43.771Z,8
2023-03-26T06:16:44.933Z,8.1
2023-03-26T06:17:45.909Z,8.1
2023-03-26T06:18:47.091Z,8.1
2023-03-26T06:19:58.129Z,8.1
2023-03-26T06:20:59.150Z,8.1
2023-03-26T06:22:00.337Z,8.2
2023-03-26T06:23:01.484Z,8.2
2023-03-26T06:24:02.493Z,8.2
2023-03-26T06:25:03.671Z,8.2
2023-03-26T06:26:04.820Z,8.3
2023-03-26T06:27:06.000Z,8.3
2023-03-26T06:28:06.981Z,8.3
2023-03-26T06:29:08.120Z,8.3
2023-03-26T06:30:09.292Z,8.4
2023-03-26T06:31:10.463Z,8.4
2023-03-26T06:32:19.419Z,8.4
2023-03-26T06:33:23.451Z,8.4
2023-03-26T06:34:25.399Z,8.5
2023-03-26T06:35:26.569Z,8.6
2023-03-26T06:36:27.733Z,8.6
2023-03-26T06:37:28.954Z,8.7
2023-03-26T06:38:30.105Z,8.7
2023-03-26T06:39:31.252Z,8.8
2023-03-26T06:40:32.413Z,8.8
2023-03-26T06:41:33.580Z,8.8
2023-03-26T06:43:08.466Z,8.8
2023-03-26T06:44:12.107Z,8.8
2023-03-26T06:45:13.251Z,8.9
2023-03-26T06:46:14.446Z,8.9
2023-03-26T06:47:15.578Z,8.9
2023-03-26T06:48:16.753Z,8.9
2023-03-26T06:49:17.914Z,8.9
2023-03-26T06:50:19.082Z,9
2023-03-26T06:51:20.245Z,9
2023-03-26T06:52:21.408Z,9
2023-03-26T06:53:22.574Z,9
2023-03-26T06:54:23.735Z,9
2023-03-26T06:55:24.714Z,9
2023-03-26T06:56:25.872Z,9.1
2023-03-26T06:57:26.848Z,9.1
2023-03-26T06:58:28.012Z,9.1
2023-03-26T06:59:29.060Z,9.1
2023-03-26T07:00:29.999Z,9.2
2023-03-26T07:01:31.205Z,9.2
2023-03-26T07:02:32.206Z,9.2
2023-03-26T07:03:33.406Z,9.3
2023-03-26T07:04:34.699Z,9.3
2023-03-26T07:05:35.668Z,9.3
2023-03-26T07:06:36.829Z,9.3
2023-03-26T07:07:40.461Z,9.3
2023-03-26T07:08:48.216Z,9.3
2023-03-26T07:09:49.368Z,9.3
2023-03-26T07:10:50.375Z,9.4
2023-03-26T07:11:51.524Z,9.4
2023-03-26T07:12:52.689Z,9.5
2023-03-26T07:13:53.864Z,9.5
2023-03-26T07:14:55.208Z,9.6
2023-03-26T07:15:57.495Z,9.6
2023-03-26T07:16:58.778Z,9.6
2023-03-26T07:17:59.753Z,9.7
2023-03-26T07:19:00.989Z,9.7
2023-03-26T07:20:02.152Z,9.8
2023-03-26T07:21:03.308Z,9.9
2023-03-26T07:22:04.471Z,9.9
2023-03-26T07:23:05.636Z,9.9
2023-03-26T07:24:06.803Z,10
2023-03-26T07:25:07.808Z,10
2023-03-26T07:26:09.171Z,10
2023-03-26T07:27:10.181Z,10
2023-03-26T07:28:11.353Z,10
2023-03-26T07:29:12.396Z,10
2023-03-26T07:30:13.592Z,10
2023-03-26T07:31:14.648Z,10
2023-03-26T07:32:17.871Z,10
2023-03-26T07:33:20.126Z,10.1
2023-03-26T07:34:21.511Z,10
2023-03-26T07:35:22.687Z,10
2023-03-26T07:36:23.828Z,10
2023-03-26T07:37:24.994Z,10
2023-03-26T07:38:26.157Z,10.1
2023-03-26T07:39:28.013Z,10.1
2023-03-26T07:40:29.242Z,10.1
2023-03-26T07:41:30.404Z,10.1
2023-03-26T07:42:31.572Z,10.1
2023-03-26T07:43:32.539Z,10.1
2023-03-26T07:44:35.322Z,10.2
2023-03-26T07:45:36.781Z,10.2
2023-03-26T07:46:37.877Z,10.2
2023-03-26T07:47:39.088Z,10.2
2023-03-26T07:48:40.229Z,10.2
2023-03-26T07:49:41.405Z,10.2
2023-03-26T07:50:42.560Z,10.3
2023-03-26T07:51:43.725Z,10.3
2023-03-26T07:52:44.907Z,10.3
2023-03-26T07:53:45.880Z,10.3
2023-03-26T07:54:46.851Z,10.3
2023-03-26T07:55:47.804Z,10.3
2023-03-26T07:56:49.074Z,10.3
2023-03-26T07:57:50.226Z,10.3
2023-03-26T07:58:51.388Z,10.3
2023-03-26T07:59:52.604Z,10.3
2023-03-26T08:00:54.085Z,10.3
2023-03-26T08:01:55.682Z,10.3
2023-03-26T08:02:57.264Z,10.3
2023-03-26T08:03:59.085Z,10.3
2023-03-26T08:05:27.058Z,10.3
2023-03-26T08:06:27.908Z,10.4
2023-03-26T08:07:29.073Z,10.4
2023-03-26T08:08:30.253Z,10.4
2023-03-26T08:09:31.813Z,10.4
2023-03-26T08:10:32.950Z,10.4
2023-03-26T08:11:34.113Z,10.4
2023-03-26T08:12:35.272Z,10.4
2023-03-26T08:13:36.438Z,10.4
2023-03-26T08:14:37.462Z,10.4
2023-03-26T08:15:38.937Z,10.4
2023-03-26T08:16:39.908Z,10.4
2023-03-26T08:17:41.075Z,10.4
2023-03-26T08:18:42.221Z,10.4
2023-03-26T08:19:43.416Z,10.5
2023-03-26T08:20:44.514Z,10.5
2023-03-26T08:21:45.670Z,10.5
2023-03-26T08:22:46.838Z,10.5
2023-03-26T08:23:50.595Z,10.5
2023-03-26T08:24:52.455Z,10.5
2023-03-26T08:25:53.533Z,10.4
2023-03-26T08:26:54.496Z,10.5
2023-03-26T08:27:55.662Z,10.5
2023-03-26T08:28:56.632Z,10.5
2023-03-26T08:29:57.606Z,10.5
2023-03-26T08:30:58.819Z,10.6
2023-03-26T08:31:59.630Z,10.6
2023-03-26T08:33:00.603Z,10.6
2023-03-26T08:34:01.847Z,10.6
2023-03-26T08:35:02.817Z,10.7
2023-03-26T08:36:04.048Z,10.7
2023-03-26T08:37:05.090Z,10.8
2023-03-26T08:38:06.060Z,10.8
2023-03-26T08:39:07.219Z,10.8
2023-03-26T08:40:08.233Z,10.8
2023-03-26T08:41:09.412Z,10.8
2023-03-26T08:42:10.419Z,10.8
2023-03-26T08:43:11.594Z,10.9
2023-03-26T08:44:12.595Z,10.9
2023-03-26T08:45:13.759Z,10.9
2023-03-26T08:46:14.822Z,10.9
2023-03-26T08:47:16.299Z,10.9
2023-03-26T08:48:17.293Z,11
2023-03-26T08:49:18.440Z,11
2023-03-26T08:50:19.606Z,11
2023-03-26T08:51:20.583Z,11.1
2023-03-26T08:52:21.748Z,11.1
2023-03-26T08:53:22.710Z,11.2
2023-03-26T08:54:23.691Z,11.3
2023-03-26T08:55:24.850Z,11.4
2023-03-26T08:56:25.876Z,11.5
2023-03-26T08:57:27.044Z,11.5
2023-03-26T08:58:28.191Z,11.5
2023-03-26T08:59:29.359Z,11.5
2023-03-26T09:00:30.527Z,11.6
2023-03-26T09:01:31.506Z,11.6
2023-03-26T09:02:32.955Z,11.6
2023-03-26T09:03:33.834Z,11.6
2023-03-26T09:04:35.044Z,11.6
2023-03-26T09:05:36.200Z,11.6
2023-03-26T09:06:37.039Z,11.6
2023-03-26T09:07:38.201Z,11.6
2023-03-26T09:08:39.172Z,11.7
2023-03-26T09:09:55.565Z,11.7
2023-03-26T09:10:56.904Z,11.8
2023-03-26T09:11:58.296Z,11.9
2023-03-26T09:12:59.452Z,12
2023-03-26T09:14:00.479Z,12
2023-03-26T09:15:01.444Z,12
2023-03-26T09:16:02.612Z,12
2023-03-26T09:17:03.908Z,11.9
2023-03-26T09:18:05.052Z,12
2023-03-26T09:19:06.151Z,12
2023-03-26T09:20:07.319Z,12
2023-03-26T09:21:08.483Z,12.1
2023-03-26T09:22:09.687Z,12.2
2023-03-26T09:23:10.636Z,12.2
2023-03-26T09:24:12.025Z,12.3
2023-03-26T09:25:13.190Z,12.4
2023-03-26T09:26:14.163Z,12.5
2023-03-26T09:27:15.186Z,12.6
2023-03-26T09:28:16.344Z,12.7
2023-03-26T09:29:17.496Z,12.7
2023-03-26T09:30:18.516Z,12.7
2023-03-26T09:31:19.698Z,12.7
2023-03-26T09:32:20.886Z,12.6
2023-03-26T09:33:21.933Z,12.6
2023-03-26T09:34:23.075Z,12.5
2023-03-26T09:35:24.068Z,12.5
2023-03-26T09:36:24.704Z,12.5
2023-03-26T09:37:25.881Z,12.5
2023-03-26T09:38:26.831Z,12.4
2023-03-26T09:39:27.999Z,12.5
2023-03-26T09:40:29.172Z,12.5
2023-03-26T09:41:30.331Z,12.6
2023-03-26T09:42:31.521Z,12.6
2023-03-26T09:43:32.674Z,12.6
2023-03-26T09:44:33.836Z,12.6
2023-03-26T09:45:34.808Z,12.6
2023-03-26T09:46:35.738Z,12.6
2023-03-26T09:47:36.952Z,12.6
2023-03-26T09:48:38.016Z,12.6
2023-03-26T09:49:38.962Z,12.5
2023-03-26T09:50:40.130Z,12.5
2023-03-26T09:51:41.112Z,12.4
2023-03-26T09:52:42.283Z,12.4
2023-03-26T09:53:43.432Z,12.3
2023-03-26T09:54:44.409Z,12.3
2023-03-26T09:55:45.701Z,12.2
2023-03-26T09:56:46.720Z,12.2
2023-03-26T09:57:47.717Z,12.1
2023-03-26T09:58:48.524Z,12.1
2023-03-26T09:59:49.696Z,12.1
2023-03-26T10:00:50.730Z,12
2023-03-26T10:01:51.922Z,12
2023-03-26T10:02:53.116Z,12
2023-03-26T10:03:54.303Z,12
2023-03-26T10:04:55.396Z,12
2023-03-26T10:05:56.657Z,12
2023-03-26T10:06:57.835Z,12
2023-03-26T10:07:58.999Z,11.9
2023-03-26T10:09:00.160Z,11.9
2023-03-26T10:10:01.129Z,11.8
2023-03-26T10:11:01.996Z,11.8
2023-03-26T10:12:03.160Z,11.8
2023-03-26T10:13:13.838Z,11.8
2023-03-26T10:14:15.946Z,11.8
2023-03-26T10:15:17.110Z,11.8
2023-03-26T10:16:18.308Z,11.9
2023-03-26T10:17:19.541Z,11.9
2023-03-26T10:18:26.807Z,12
2023-03-26T10:19:30.990Z,12
2023-03-26T10:20:31.924Z,12
2023-03-26T10:21:33.092Z,12
2023-03-26T10:22:34.259Z,12.1
2023-03-26T10:23:35.298Z,12
2023-03-26T10:24:36.252Z,12.1
2023-03-26T10:25:37.230Z,12.1
2023-03-26T10:26:38.390Z,12.1
2023-03-26T10:27:39.445Z,12.2
2023-03-26T10:28:40.450Z,12.2
2023-03-26T10:29:41.619Z,12.3
2023-03-26T10:30:42.671Z,12.4
2023-03-26T10:31:43.638Z,12.4
2023-03-26T10:32:44.707Z,12.5
2023-03-26T10:33:46.009Z,12.5
2023-03-26T10:34:46.867Z,12.6
2023-03-26T10:35:48.009Z,12.6
2023-03-26T10:36:49.182Z,12.7
2023-03-26T10:37:50.355Z,12.7
2023-03-26T10:38:51.515Z,12.7
2023-03-26T10:39:52.482Z,12.8
2023-03-26T10:40:53.978Z,12.8
2023-03-26T10:41:55.808Z,12.8
2023-03-26T10:42:56.961Z,12.8
2023-03-26T10:44:07.717Z,12.9
2023-03-26T10:45:10.011Z,12.9
2023-03-26T10:46:11.025Z,13
2023-03-26T10:47:12.376Z,13
2023-03-26T10:48:13.562Z,13
2023-03-26T10:49:14.718Z,13.1
2023-03-26T10:50:22.795Z,13.2
2023-03-26T10:51:24.830Z,13.2
2023-03-26T10:52:26.017Z,13.3
2023-03-26T10:53:27.074Z,13.3
2023-03-26T10:54:28.066Z,13.3
2023-03-26T10:55:29.250Z,13.3
2023-03-26T10:56:30.547Z,13.3
2023-03-26T10:57:31.730Z,13.3
2023-03-26T10:58:45.989Z,13.4
2023-03-26T10:59:51.476Z,13.4
2023-03-26T11:00:52.746Z,13.4
2023-03-26T11:01:54.736Z,13.4
2023-03-26T11:02:56.157Z,13.4
2023-03-26T11:03:57.392Z,13.4
2023-03-26T11:04:58.552Z,13.5
2023-03-26T11:05:59.592Z,13.5
2023-03-26T11:07:01.799Z,13.6
2023-03-26T11:08:05.683Z,13.7
2023-03-26T11:09:06.862Z,13.8
2023-03-26T11:10:08.178Z,13.8
2023-03-26T11:11:09.285Z,13.8
2023-03-26T11:12:25.363Z,13.8
2023-03-26T11:13:29.138Z,13.8
2023-03-26T11:14:34.704Z,13.9
2023-03-26T11:15:36.373Z,14
2023-03-26T11:16:37.476Z,14.1
2023-03-26T11:17:39.980Z,14.1
2023-03-26T11:18:42.415Z,14.2
2023-03-26T11:19:43.445Z,14.2
2023-03-26T11:20:44.590Z,14.2
2023-03-26T11:21:45.826Z,14.2
2023-03-26T11:22:47.001Z,14.2
2023-03-26T11:23:48.014Z,14.2
2023-03-26T11:25:07.050Z,14.2
2023-03-26T11:26:08.061Z,14.2
2023-03-26T11:27:14.766Z,14.2
2023-03-26T11:28:21.206Z,14.2
2023-03-26T11:29:31.207Z,14.2
2023-03-26T11:35:40.038Z,14.1
2023-03-26T11:36:42.487Z,14.1
2023-03-26T11:37:43.454Z,14
2023-03-26T11:38:44.589Z,14
2023-03-26T11:39:45.754Z,14
2023-03-26T11:40:46.949Z,13.9
2023-03-26T11:41:47.755Z,13.9
2023-03-26T11:42:48.918Z,13.8
2023-03-26T11:43:50.088Z,13.8
2023-03-26T11:44:51.257Z,13.7
2023-03-26T11:45:52.444Z,13.7
2023-03-26T11:46:53.678Z,13.7
2023-03-26T11:47:54.950Z,13.6
2023-03-26T11:48:56.082Z,13.6
2023-03-26T11:49:57.237Z,13.5
2023-03-26T11:50:58.227Z,13.5
2023-03-26T11:51:59.370Z,13.4
2023-03-26T11:53:00.558Z,13.4
2023-03-26T11:54:01.703Z,13.3
2023-03-26T11:55:02.869Z,13.3
2023-03-26T11:56:03.945Z,13.3
2023-03-26T11:57:07.093Z,13.2
2023-03-26T11:58:09.128Z,13.2
2023-03-26T11:59:11.952Z,13.1
2023-03-26T12:00:13.106Z,13.1
2023-03-26T12:01:14.300Z,13.1
2023-03-26T12:02:15.469Z,13
2023-03-26T12:03:16.548Z,13
2023-03-26T12:04:17.597Z,13
2023-03-26T12:05:18.836Z,13
2023-03-26T12:06:19.807Z,13
2023-03-26T12:07:20.966Z,13
2023-03-26T12:08:21.957Z,13
2023-03-26T12:09:23.101Z,13
2023-03-26T12:10:24.270Z,13
2023-03-26T12:11:25.453Z,13
2023-03-26T12:12:26.601Z,13
2023-03-26T12:13:27.774Z,13
2023-03-26T12:14:28.787Z,13.1
2023-03-26T12:15:29.955Z,13.1
2023-03-26T12:16:31.157Z,13.1
2023-03-26T12:17:32.369Z,13.2
2023-03-26T12:18:33.368Z,13.2
2023-03-26T12:19:34.539Z,13.2
2023-03-26T12:20:35.709Z,13.2
2023-03-26T12:21:36.896Z,13.2
2023-03-26T12:22:38.049Z,13.3
2023-03-26T12:23:39.246Z,13.3
2023-03-26T12:24:40.182Z,13.3
2023-03-26T12:25:41.348Z,13.3
2023-03-26T12:26:42.534Z,13.3
2023-03-26T12:27:43.682Z,13.3
2023-03-26T12:28:44.847Z,13.3
2023-03-26T12:29:45.819Z,13.3
2023-03-26T12:30:46.981Z,13.3
2023-03-26T12:31:48.200Z,13.3
2023-03-26T12:32:49.428Z,13.3
2023-03-26T12:33:54.702Z,13.3
2023-03-26T12:34:58.534Z,13.3
2023-03-26T12:35:59.555Z,13.3
2023-03-26T12:37:01.226Z,13.3
2023-03-26T12:38:02.081Z,13.3
2023-03-26T12:39:16.487Z,13.3
2023-03-26T12:42:26.195Z,13.2
2023-03-26T12:46:20.733Z,13.1
2023-03-26T12:49:05.136Z,13
2023-03-26T12:50:06.426Z,12.9
2023-03-26T12:51:07.669Z,12.8
2023-03-26T12:52:09.382Z,12.8
2023-03-26T12:53:10.664Z,12.7
2023-03-26T12:54:11.862Z,12.6
2023-03-26T12:55:13.010Z,12.6
2023-03-26T12:56:14.175Z,12.5
2023-03-26T12:57:15.199Z,12.4
2023-03-26T12:58:16.156Z,12.4
2023-03-26T12:59:17.313Z,12.3
2023-03-26T13:00:18.290Z,12.1
2023-03-26T13:01:19.492Z,12
2023-03-26T13:02:20.581Z,11.9
2023-03-26T13:03:21.950Z,11.8
2023-03-26T13:04:23.181Z,11.7
2023-03-26T13:05:24.372Z,11.5
2023-03-26T13:06:25.519Z,11.4
2023-03-26T13:07:26.689Z,11.3
2023-03-26T13:08:27.858Z,11.2
2023-03-26T13:09:28.853Z,11.1
2023-03-26T13:10:29.670Z,11
2023-03-26T13:11:30.665Z,11
2023-03-26T13:12:31.630Z,10.9
2023-03-26T13:13:32.604Z,10.9
2023-03-26T13:14:33.630Z,10.9
2023-03-26T13:15:34.817Z,10.9
2023-03-26T13:16:35.769Z,10.9
2023-03-26T13:17:36.943Z,10.9
2023-03-26T13:18:39.090Z,10.9
2023-03-26T13:19:40.074Z,11
2023-03-26T13:20:41.237Z,11
2023-03-26T13:21:42.392Z,11
2023-03-26T13:22:43.363Z,11.1
2023-03-26T13:23:44.532Z,11.1
2023-03-26T13:24:45.634Z,11.2
2023-03-26T13:25:46.780Z,11.2
2023-03-26T13:26:47.935Z,11.2
2023-03-26T13:27:49.108Z,11.2
2023-03-26T13:28:49.931Z,11.2
2023-03-26T13:29:51.096Z,11.2
2023-03-26T13:30:52.429Z,11.2
2023-03-26T13:31:53.919Z,11.2
2023-03-26T13:32:55.112Z,11.3
2023-03-26T13:33:55.980Z,11.3
2023-03-26T13:34:57.153Z,11.3
2023-03-26T13:36:06.742Z,11.3
2023-03-26T13:37:25.291Z,11.3
2023-03-26T13:38:26.455Z,11.3
2023-03-26T13:39:27.641Z,11.3
2023-03-26T13:40:28.806Z,11.3
2023-03-26T13:41:29.775Z,11.3
2023-03-26T13:42:30.953Z,11.3
2023-03-26T13:43:32.033Z,11.3
2023-03-26T13:44:33.164Z,11.2
2023-03-26T13:45:34.328Z,11.2
2023-03-26T13:46:35.521Z,11.2
2023-03-26T13:47:36.930Z,11.2
2023-03-26T13:48:38.247Z,11.1
2023-03-26T13:49:39.415Z,11.1
2023-03-26T13:50:40.590Z,11.1
2023-03-26T13:51:41.773Z,11.1
2023-03-26T13:52:42.730Z,11
2023-03-26T13:53:43.895Z,11
2023-03-26T13:54:45.063Z,11
2023-03-26T13:55:46.062Z,10.9
2023-03-26T13:56:47.235Z,10.9
2023-03-26T13:57:48.371Z,10.9
2023-03-26T13:58:49.536Z,10.8
2023-03-26T13:59:50.700Z,10.8
2023-03-26T14:00:51.731Z,10.7
2023-03-26T14:01:52.960Z,10.7
2023-03-26T14:02:54.014Z,10.7
2023-03-26T14:03:55.227Z,10.6
2023-03-26T14:04:56.479Z,10.6
2023-03-26T14:05:57.651Z,10.6
2023-03-26T14:06:58.950Z,10.6
2023-03-26T14:07:59.917Z,10.6
2023-03-26T14:09:01.086Z,10.5
2023-03-26T14:10:02.248Z,10.5
2023-03-26T14:11:03.513Z,10.5
2023-03-26T14:12:04.697Z,10.4
2023-03-26T14:13:05.509Z,10.4
2023-03-26T14:14:06.673Z,10.4
2023-03-26T14:15:07.837Z,10.3
2023-03-26T14:16:09.118Z,10.3